KEYW/EYW METAR and TAF weather

Enter ICAO airport designator
Station Type Date Time Source
KEYW METAR 2022/12/04 10:53 UTC NOAA

KEYW 041053Z AUTO 03007KT 10SM CLR 23/20 A3013 RMK AO2 SLP201 T02280200


Station Type Date Time Source
KEYW Decoded METAR 2022/12/04 10:53 UTC NOAA

KEY WEST INTERNATIONAL AIRPORT , FL, United States (KEYW) 24-33N 81-46W 5M
Dec 04, 2022 - 05:53 AM EST / 2022.12.04 1053 UTC
Wind: from the NNE (030 degrees) at 8 MPH (7 KT):0
Visibility: 10 mile(s):0
Sky conditions: clear
Temperature: 73.0 F (22.8 C)
Dew Point: 68.0 F (20.0 C)
Relative Humidity: 84%
Pressure (altimeter): 30.13 in. Hg (1020 hPa)
ob: KEYW 041053Z AUTO 03007KT 10SM CLR 23/20 A3013 RMK AO2 SLP201 T02280200
cycle: 11

Station Type Date Time Source
KEYW TAF 2022/12/04 12:24 UTC NOAA

TAF KEYW 041122Z 0412/0512 04008KT P6SM FEW035

Example: see airport list